createdAt,value
2018-07-17T00:04:07.014Z,97.20
2018-07-17T00:06:37.709Z,97.20
2018-07-17T00:09:09.129Z,98.10
2018-07-17T00:11:39.978Z,99.00
2018-07-17T00:14:10.677Z,98.70
2018-07-17T00:16:42.098Z,98.60
2018-07-17T00:19:13.881Z,98.90
2018-07-17T00:21:44.381Z,98.90
2018-07-17T00:26:45.275Z,99.30
2018-07-17T00:29:16.026Z,99.70
2018-07-17T00:31:46.653Z,99.90
2018-07-17T00:34:17.766Z,99.90
2018-07-17T00:36:48.332Z,99.90
2018-07-17T00:39:18.755Z,99.90
2018-07-17T00:41:49.370Z,99.90
2018-07-17T00:44:20.252Z,99.90
2018-07-17T00:46:50.957Z,99.90
2018-07-17T00:49:21.822Z,99.90
2018-07-17T00:51:52.503Z,99.90
2018-07-17T00:54:23.078Z,99.90
2018-07-17T00:56:53.430Z,99.90
2018-07-17T00:59:24.451Z,99.90
2018-07-17T01:02:00.948Z,99.90
2018-07-17T01:04:36.717Z,99.90
2018-07-17T01:07:12.228Z,99.90
2018-07-17T01:09:47.979Z,99.90
2018-07-17T01:12:17.527Z,99.90
2018-07-17T01:15:22.666Z,99.90
2018-07-17T01:17:54.561Z,99.90
2018-07-17T01:20:25.467Z,99.90
2018-07-17T01:22:56.216Z,99.90
2018-07-17T01:25:27.387Z,99.90
2018-07-17T01:27:57.859Z,99.90
2018-07-17T01:30:28.240Z,99.90
2018-07-17T01:32:58.600Z,99.90
2018-07-17T01:35:29.306Z,99.90
2018-07-17T01:37:59.646Z,99.90
2018-07-17T01:40:29.969Z,99.90
2018-07-17T01:43:00.535Z,99.90
2018-07-17T01:45:30.949Z,99.90
2018-07-17T01:48:01.633Z,99.90
2018-07-17T01:50:32.022Z,99.90
2018-07-17T01:53:02.547Z,99.90
2018-07-17T01:55:32.994Z,99.90
2018-07-17T01:58:03.662Z,99.90
2018-07-17T02:00:34.402Z,99.90
2018-07-17T02:03:05.362Z,99.90
2018-07-17T02:05:35.906Z,99.90
2018-07-17T02:08:06.545Z,99.90
2018-07-17T02:10:37.349Z,99.90
2018-07-17T02:13:07.983Z,99.90
2018-07-17T02:15:38.478Z,99.90
2018-07-17T02:18:09.522Z,99.90
2018-07-17T02:20:40.303Z,99.90
2018-07-17T02:23:10.683Z,99.90
2018-07-17T02:25:41.202Z,99.90
2018-07-17T02:28:11.802Z,99.90
2018-07-17T02:30:42.548Z,99.90
2018-07-17T02:33:12.850Z,99.90
2018-07-17T02:35:43.387Z,99.90
2018-07-17T02:38:13.807Z,99.90
2018-07-17T02:40:44.133Z,99.90
2018-07-17T02:43:14.700Z,99.90
2018-07-17T02:45:45.463Z,99.90
2018-07-17T02:48:15.956Z,99.90
2018-07-17T02:50:46.539Z,99.90
2018-07-17T02:53:17.064Z,99.90
2018-07-17T02:55:47.599Z,99.90
2018-07-17T02:58:18.220Z,99.90
2018-07-17T03:00:48.534Z,99.90
2018-07-17T03:03:20.738Z,99.90
2018-07-17T03:05:51.172Z,99.90
2018-07-17T03:08:21.731Z,99.90
2018-07-17T03:10:52.522Z,99.90
2018-07-17T03:13:23.330Z,99.90
2018-07-17T03:15:53.910Z,99.90
2018-07-17T03:18:24.493Z,99.90
2018-07-17T03:20:55.474Z,99.90
2018-07-17T03:23:25.996Z,99.90
2018-07-17T03:25:56.696Z,99.90
2018-07-17T03:28:31.475Z,99.90
2018-07-17T03:31:01.903Z,99.90
2018-07-17T03:33:32.573Z,99.90
2018-07-17T03:36:03.021Z,99.90
2018-07-17T03:38:33.949Z,99.90
2018-07-17T03:41:04.718Z,99.90
2018-07-17T03:43:35.556Z,99.90
2018-07-17T03:46:06.312Z,99.90
2018-07-17T03:48:36.904Z,99.90
2018-07-17T03:51:07.353Z,99.90
2018-07-17T03:53:38.260Z,99.90
2018-07-17T03:56:08.756Z,99.90
2018-07-17T03:58:39.278Z,99.90
2018-07-17T04:01:09.816Z,99.90
2018-07-17T04:03:40.373Z,99.90
2018-07-17T04:06:10.894Z,99.90
2018-07-17T04:08:42.011Z,99.90
2018-07-17T04:11:12.745Z,99.90
2018-07-17T04:13:43.282Z,99.90
2018-07-17T04:16:13.910Z,99.90
2018-07-17T04:18:44.690Z,99.90
2018-07-17T04:21:15.294Z,99.90
2018-07-17T04:23:45.822Z,99.90
2018-07-17T04:26:16.639Z,99.90
2018-07-17T04:28:47.299Z,99.90
2018-07-17T04:31:17.904Z,99.90
2018-07-17T04:36:18.547Z,99.90
2018-07-17T04:38:49.010Z,99.90
2018-07-17T04:41:19.807Z,99.90
2018-07-17T04:43:50.382Z,99.90
2018-07-17T04:46:21.063Z,99.90
2018-07-17T04:48:51.593Z,99.90
2018-07-17T04:51:22.544Z,99.90
2018-07-17T04:53:53.026Z,99.90
2018-07-17T04:56:23.490Z,99.90
2018-07-17T04:58:54.378Z,99.90
2018-07-17T05:01:25.796Z,99.90
2018-07-17T05:03:56.251Z,99.90
2018-07-17T05:06:26.885Z,99.90
2018-07-17T05:08:57.286Z,99.90
2018-07-17T05:11:27.846Z,99.90
2018-07-17T05:13:58.664Z,99.90
2018-07-17T05:16:29.591Z,99.90
2018-07-17T05:19:00.228Z,99.90
2018-07-17T05:21:30.806Z,99.90
2018-07-17T05:24:01.361Z,99.90
2018-07-17T05:26:32.027Z,99.90
2018-07-17T05:29:02.786Z,99.90
2018-07-17T05:31:33.308Z,99.90
2018-07-17T05:34:05.133Z,99.90
2018-07-17T05:36:35.725Z,99.90
2018-07-17T05:39:08.043Z,99.90
2018-07-17T05:41:38.893Z,99.90
2018-07-17T05:44:09.619Z,99.90
2018-07-17T05:46:40.148Z,99.90
2018-07-17T05:49:10.765Z,99.90
2018-07-17T05:51:41.471Z,99.90
2018-07-17T05:54:11.854Z,99.90
2018-07-17T05:56:42.478Z,99.90
2018-07-17T05:59:13.215Z,99.90
2018-07-17T06:01:43.940Z,99.90
2018-07-17T06:04:15.799Z,99.90
2018-07-17T06:06:46.618Z,99.90
2018-07-17T06:09:17.347Z,99.90
2018-07-17T06:11:47.977Z,99.90
2018-07-17T06:14:18.666Z,99.90
2018-07-17T06:16:49.279Z,99.90
2018-07-17T06:19:20.056Z,99.90
2018-07-17T06:21:51.053Z,99.90
2018-07-17T06:24:21.804Z,99.90
2018-07-17T06:26:52.414Z,99.90
2018-07-17T06:29:23.326Z,99.90
2018-07-17T06:31:54.337Z,99.90
2018-07-17T06:34:25.141Z,99.90
2018-07-17T06:36:55.666Z,99.90
2018-07-17T06:39:26.205Z,99.90
2018-07-17T06:41:56.784Z,99.90
2018-07-17T06:44:27.395Z,99.90
2018-07-17T06:46:58.614Z,99.90
2018-07-17T06:49:29.596Z,99.90
2018-07-17T06:52:00.151Z,99.90
2018-07-17T06:54:30.635Z,99.90
2018-07-17T06:57:01.008Z,99.90
2018-07-17T06:59:31.943Z,99.90
2018-07-17T07:02:02.569Z,99.90
2018-07-17T07:04:33.389Z,99.90
2018-07-17T07:07:04.025Z,99.90
2018-07-17T07:09:35.041Z,99.90
2018-07-17T07:12:05.786Z,99.90
2018-07-17T07:14:36.991Z,99.90
2018-07-17T07:17:07.878Z,99.90
2018-07-17T07:19:38.365Z,99.90
2018-07-17T07:22:08.857Z,99.90
2018-07-17T07:24:39.366Z,99.90
2018-07-17T07:27:09.890Z,99.90
2018-07-17T07:29:40.277Z,99.90
2018-07-17T07:32:10.997Z,99.90
2018-07-17T07:34:41.706Z,99.90
2018-07-17T07:37:12.902Z,99.00
2018-07-17T07:39:43.582Z,98.90
2018-07-17T07:42:14.202Z,97.20
2018-07-17T07:44:44.648Z,95.30
2018-07-17T07:47:15.108Z,95.10
2018-07-17T07:49:45.722Z,93.20
2018-07-17T07:52:16.392Z,93.10
2018-07-17T07:54:47.423Z,92.10
2018-07-17T07:57:18.165Z,92.40
2018-07-17T07:59:48.734Z,90.40
2018-07-17T08:02:19.301Z,91.00
2018-07-17T08:04:49.837Z,87.80
2018-07-17T08:07:20.290Z,87.30
2018-07-17T08:09:51.178Z,84.40
2018-07-17T08:12:21.735Z,83.90
2018-07-17T08:14:52.586Z,80.40
2018-07-17T08:17:24.098Z,82.40
2018-07-17T08:22:24.729Z,79.60
2018-07-17T08:24:55.285Z,77.90
2018-07-17T08:27:26.016Z,76.10
2018-07-17T08:29:57.001Z,73.40
2018-07-17T08:32:27.955Z,72.80
2018-07-17T08:34:58.677Z,72.70
2018-07-17T08:37:29.600Z,74.50
2018-07-17T08:40:00.384Z,72.40
2018-07-17T08:42:31.170Z,69.20
2018-07-17T08:45:02.578Z,70.50
2018-07-17T08:47:33.725Z,70.70
2018-07-17T08:50:04.273Z,70.60
2018-07-17T08:52:34.997Z,66.70
2018-07-17T08:55:06.397Z,69.40
2018-07-17T08:57:37.149Z,68.20
2018-07-17T09:00:08.626Z,69.30
2018-07-17T09:02:39.458Z,69.70
2018-07-17T09:05:10.753Z,68.90
2018-07-17T09:07:41.645Z,66.00
2018-07-17T09:10:12.495Z,62.50
2018-07-17T09:12:43.047Z,65.00
2018-07-17T09:15:14.802Z,65.40
2018-07-17T09:17:45.390Z,66.10
2018-07-17T09:20:16.020Z,66.90
2018-07-17T09:22:46.520Z,66.50
2018-07-17T09:25:17.906Z,65.80
2018-07-17T09:27:48.546Z,65.40
2018-07-17T09:30:19.245Z,64.20
2018-07-17T09:32:49.918Z,64.20
2018-07-17T09:35:20.870Z,61.70
2018-07-17T09:37:51.672Z,60.10
2018-07-17T09:40:22.479Z,58.40
2018-07-17T09:42:53.213Z,58.60
2018-07-17T09:45:24.590Z,57.50
2018-07-17T09:47:55.460Z,57.00
2018-07-17T09:50:26.121Z,57.70
2018-07-17T09:55:26.866Z,56.60
2018-07-17T09:57:57.397Z,55.10
2018-07-17T10:00:34.249Z,55.60
2018-07-17T10:03:05.366Z,55.90
2018-07-17T10:05:36.073Z,54.80
2018-07-17T10:08:07.232Z,53.80
2018-07-17T10:10:37.874Z,54.30
2018-07-17T10:13:08.835Z,54.20
2018-07-17T10:15:39.518Z,53.80
2018-07-17T10:20:40.680Z,51.70
2018-07-17T10:23:11.415Z,53.60
2018-07-17T10:25:42.261Z,52.30
2018-07-17T10:28:12.931Z,52.90
2018-07-17T10:30:43.565Z,56.20
2018-07-17T10:33:14.319Z,55.40
2018-07-17T10:35:46.219Z,55.00
2018-07-17T10:38:16.957Z,53.90
2018-07-17T10:40:47.697Z,54.20
2018-07-17T10:43:18.639Z,54.10
2018-07-17T10:45:49.092Z,53.10
2018-07-17T10:48:19.652Z,52.60
2018-07-17T10:50:50.133Z,52.00
2018-07-17T10:53:21.125Z,52.00
2018-07-17T10:55:51.809Z,51.70
2018-07-17T10:58:22.589Z,53.10
2018-07-17T11:00:53.150Z,53.20
2018-07-17T11:03:24.352Z,51.20
2018-07-17T11:05:54.989Z,50.40
2018-07-17T11:08:28.854Z,51.00
2018-07-17T11:11:00.430Z,52.00
2018-07-17T11:13:31.209Z,52.60
2018-07-17T11:16:01.897Z,54.60
2018-07-17T11:18:32.489Z,55.30
2018-07-17T11:21:03.416Z,55.50
2018-07-17T11:23:34.219Z,56.00
2018-07-17T11:26:05.473Z,55.20
2018-07-17T11:28:36.282Z,57.20
2018-07-17T11:31:06.973Z,56.20
2018-07-17T11:33:39.084Z,56.60
2018-07-17T11:41:09.889Z,56.70
2018-07-17T11:43:40.540Z,55.80
2018-07-17T11:46:12.311Z,57.30
2018-07-17T11:48:43.221Z,58.00
2018-07-17T11:51:15.034Z,58.40
2018-07-17T11:53:45.921Z,58.40
2018-07-17T11:56:16.625Z,59.60
2018-07-17T11:58:48.745Z,59.10
2018-07-17T12:01:19.349Z,59.80
2018-07-17T12:03:49.849Z,58.80
2018-07-17T12:06:21.029Z,59.20
2018-07-17T12:08:51.730Z,58.90
2018-07-17T12:11:22.516Z,60.10
2018-07-17T12:13:53.077Z,59.70
2018-07-17T12:16:24.016Z,59.60
2018-07-17T12:18:55.008Z,60.80
2018-07-17T12:21:28.364Z,60.20
2018-07-17T12:23:59.113Z,61.50
2018-07-17T12:26:30.081Z,60.40
2018-07-17T12:29:00.734Z,58.90
2018-07-17T12:31:31.492Z,57.80
2018-07-17T12:34:02.169Z,56.80
2018-07-17T12:36:33.244Z,58.10
2018-07-17T12:39:04.570Z,57.10
2018-07-17T12:41:35.137Z,54.10
2018-07-17T12:46:35.617Z,54.60
2018-07-17T12:51:36.545Z,55.40
2018-07-17T12:54:07.494Z,54.70
2018-07-17T12:56:38.442Z,54.30
2018-07-17T12:59:09.021Z,55.00
2018-07-17T13:01:39.694Z,55.60
2018-07-17T13:04:10.463Z,55.20
2018-07-17T13:06:41.677Z,54.90
2018-07-17T13:09:12.369Z,54.30
2018-07-17T13:11:43.120Z,54.70
2018-07-17T13:14:14.290Z,54.30
2018-07-17T13:16:45.041Z,53.20
2018-07-17T13:19:15.833Z,53.20
2018-07-17T13:21:47.140Z,54.50
2018-07-17T13:24:17.730Z,53.60
2018-07-17T13:26:48.521Z,53.70
2018-07-17T13:29:19.109Z,53.20
2018-07-17T13:31:53.152Z,54.90
2018-07-17T13:34:24.091Z,52.70
2018-07-17T13:36:57.898Z,53.20
2018-07-17T13:39:28.467Z,54.80
2018-07-17T13:41:59.515Z,52.90
2018-07-17T13:44:30.256Z,54.20
2018-07-17T13:47:01.129Z,52.40
2018-07-17T13:49:31.883Z,54.50
2018-07-17T13:52:02.479Z,53.60
2018-07-17T13:54:33.081Z,54.00
2018-07-17T13:57:03.955Z,53.80
2018-07-17T13:59:34.549Z,52.70
2018-07-17T14:02:05.463Z,52.10
2018-07-17T14:04:36.400Z,50.80
2018-07-17T14:07:07.341Z,51.20
2018-07-17T14:09:37.821Z,52.70
2018-07-17T14:12:08.755Z,52.20
2018-07-17T14:14:39.467Z,51.80
2018-07-17T14:17:10.137Z,51.90
2018-07-17T14:19:40.621Z,52.60
2018-07-17T14:22:12.487Z,52.70
2018-07-17T14:24:43.640Z,53.50
2018-07-17T14:27:14.351Z,54.30
2018-07-17T14:29:44.770Z,54.70
2018-07-17T14:32:15.378Z,54.20
2018-07-17T14:34:45.966Z,54.00
2018-07-17T14:37:16.477Z,54.20
2018-07-17T14:39:47.081Z,54.70
2018-07-17T14:42:17.558Z,55.60
2018-07-17T14:44:48.303Z,55.30
2018-07-17T14:47:19.100Z,57.00
2018-07-17T14:49:51.101Z,56.80
2018-07-17T14:54:51.557Z,57.10
2018-07-17T14:57:22.688Z,56.00
2018-07-17T14:59:53.281Z,55.70
2018-07-17T15:02:23.881Z,55.80
2018-07-17T15:04:54.229Z,56.00
2018-07-17T15:07:24.691Z,55.70
2018-07-17T15:09:55.476Z,55.50
2018-07-17T15:12:26.308Z,55.80
2018-07-17T15:14:57.117Z,55.70
2018-07-17T15:17:28.057Z,55.10
2018-07-17T15:19:58.978Z,55.20
2018-07-17T15:22:30.032Z,55.00
2018-07-17T15:25:00.673Z,54.70
2018-07-17T15:27:31.916Z,54.10
2018-07-17T15:30:02.546Z,53.10
2018-07-17T15:32:33.086Z,53.40
2018-07-17T15:35:04.034Z,52.20
2018-07-17T15:37:34.910Z,52.60
2018-07-17T15:40:05.805Z,52.90
2018-07-17T15:42:36.821Z,52.50
2018-07-17T15:45:07.694Z,54.10
2018-07-17T15:47:38.384Z,53.10
2018-07-17T15:50:09.493Z,52.60
2018-07-17T15:52:40.413Z,52.60
2018-07-17T15:55:11.209Z,52.50
2018-07-17T15:57:41.891Z,52.70
2018-07-17T16:00:12.665Z,52.90
2018-07-17T16:02:43.469Z,52.60
2018-07-17T16:05:14.189Z,52.20
2018-07-17T16:07:45.326Z,53.30
2018-07-17T16:10:15.958Z,54.30
2018-07-17T16:12:46.600Z,55.20
2018-07-17T16:15:17.714Z,55.10
2018-07-17T16:17:48.882Z,55.60
2018-07-17T16:22:50.119Z,55.50
2018-07-17T16:25:20.842Z,55.00
2018-07-17T16:27:51.397Z,56.00
2018-07-17T16:30:22.153Z,57.40
2018-07-17T16:32:52.864Z,58.20
2018-07-17T16:35:23.546Z,58.50
2018-07-17T16:37:54.700Z,59.20
2018-07-17T16:40:25.488Z,59.20
2018-07-17T16:42:56.254Z,59.80
2018-07-17T16:45:26.990Z,60.00
2018-07-17T16:47:57.784Z,59.60
2018-07-17T16:50:28.966Z,60.50
2018-07-17T16:52:59.453Z,60.90
2018-07-17T16:58:00.160Z,60.80
2018-07-17T17:00:31.373Z,61.30
2018-07-17T17:05:32.460Z,61.90
2018-07-17T17:08:03.489Z,62.00
2018-07-17T17:10:34.537Z,62.30
2018-07-17T17:13:05.389Z,62.80
2018-07-17T17:15:36.196Z,63.00
2018-07-17T17:18:06.925Z,63.50
2018-07-17T17:20:38.101Z,64.20
2018-07-17T17:23:08.891Z,63.50
2018-07-17T17:25:39.804Z,63.90
2018-07-17T17:28:10.894Z,64.80
2018-07-17T17:30:41.392Z,65.20
2018-07-17T17:33:12.195Z,66.20
2018-07-17T17:35:43.093Z,66.30
2018-07-17T17:38:14.227Z,66.70
2018-07-17T17:40:45.141Z,66.90
2018-07-17T17:43:15.892Z,66.80
2018-07-17T17:45:46.649Z,67.00
2018-07-17T17:48:17.434Z,67.60
2018-07-17T17:50:48.266Z,67.20
2018-07-17T17:53:19.662Z,66.90
2018-07-17T17:55:50.497Z,67.30
2018-07-17T17:58:21.150Z,67.00
2018-07-17T18:00:51.852Z,66.50
2018-07-17T18:03:22.805Z,65.90
2018-07-17T18:05:53.533Z,66.40
2018-07-17T18:08:24.586Z,66.40
2018-07-17T18:10:55.406Z,66.80
2018-07-17T18:13:26.280Z,66.80
2018-07-17T18:15:57.282Z,66.80
2018-07-17T18:18:28.082Z,66.90
2018-07-17T18:20:58.730Z,67.00
2018-07-17T18:23:29.554Z,67.40
2018-07-17T18:26:00.331Z,67.90
2018-07-17T18:28:30.995Z,68.00
2018-07-17T18:31:01.890Z,68.40
2018-07-17T18:33:33.023Z,69.10
2018-07-17T18:36:03.699Z,70.90
2018-07-17T18:38:34.701Z,71.90
2018-07-17T18:41:05.517Z,72.30
2018-07-17T18:43:36.189Z,73.00
2018-07-17T18:46:06.974Z,74.20
2018-07-17T18:48:37.810Z,74.90
2018-07-17T18:51:08.740Z,75.40
2018-07-17T18:53:39.785Z,76.10
2018-07-17T18:56:10.606Z,76.10
2018-07-17T18:58:41.709Z,76.60
2018-07-17T19:01:14.013Z,76.50
2018-07-17T19:03:45.248Z,77.00
2018-07-17T19:06:16.096Z,77.20
2018-07-17T19:08:46.974Z,77.50
2018-07-17T19:11:17.834Z,77.90
2018-07-17T19:13:48.508Z,78.40
2018-07-17T19:16:19.808Z,78.90
2018-07-17T19:18:50.797Z,78.80
2018-07-17T19:21:21.517Z,79.10
2018-07-17T19:23:53.550Z,79.20
2018-07-17T19:26:24.265Z,79.70
2018-07-17T19:28:54.897Z,80.30
2018-07-17T19:31:25.638Z,80.30
2018-07-17T19:33:56.441Z,80.30
2018-07-17T19:36:27.173Z,80.40
2018-07-17T19:38:58.343Z,80.90
2018-07-17T19:41:28.921Z,81.30
2018-07-17T19:43:59.802Z,81.10
2018-07-17T19:46:30.329Z,81.80
2018-07-17T19:49:01.296Z,82.00
2018-07-17T19:51:31.830Z,81.80
2018-07-17T19:54:02.978Z,82.70
2018-07-17T19:56:33.526Z,82.30
2018-07-17T19:59:04.256Z,82.10
2018-07-17T20:01:35.303Z,82.40
2018-07-17T20:04:06.153Z,82.20
2018-07-17T20:06:36.881Z,82.20
2018-07-17T20:09:09.019Z,82.20
2018-07-17T20:11:39.712Z,82.50
2018-07-17T20:14:10.334Z,83.00
2018-07-17T20:16:41.021Z,82.80
2018-07-17T20:19:11.503Z,83.30
2018-07-17T20:21:42.073Z,83.60
2018-07-17T20:24:13.177Z,84.00
2018-07-17T20:26:43.852Z,84.60
2018-07-17T20:29:14.362Z,84.40
2018-07-17T20:31:44.838Z,85.20
2018-07-17T20:34:15.738Z,85.30
2018-07-17T20:36:46.902Z,85.90
2018-07-17T20:39:17.539Z,86.00
2018-07-17T20:41:48.035Z,86.70
2018-07-17T20:44:19.030Z,86.90
2018-07-17T20:46:49.629Z,87.00
2018-07-17T20:49:20.575Z,87.60
2018-07-17T20:51:51.557Z,87.60
2018-07-17T20:54:22.369Z,87.80
2018-07-17T20:56:53.050Z,88.10
2018-07-17T20:59:24.250Z,88.70
2018-07-17T21:01:54.789Z,88.60
2018-07-17T21:04:25.509Z,89.20
2018-07-17T21:06:56.369Z,89.10
2018-07-17T21:09:28.305Z,89.50
2018-07-17T21:11:59.313Z,89.20
2018-07-17T21:14:30.109Z,89.50
2018-07-17T21:17:01.798Z,90.10
2018-07-17T21:19:32.680Z,90.00
2018-07-17T21:22:03.869Z,90.20
2018-07-17T21:24:34.873Z,90.10
2018-07-17T21:27:06.204Z,90.40
2018-07-17T21:29:36.962Z,90.30
2018-07-17T21:32:08.117Z,90.40
2018-07-17T21:34:38.451Z,90.50
2018-07-17T21:37:09.250Z,90.50
2018-07-17T21:39:40.315Z,90.50
2018-07-17T21:42:11.022Z,90.60
2018-07-17T21:44:42.028Z,90.60
2018-07-17T21:47:13.463Z,90.30
2018-07-17T21:49:44.479Z,90.20
2018-07-17T21:52:15.512Z,90.30
2018-07-17T21:54:46.188Z,90.10
2018-07-17T21:57:17.197Z,90.10
2018-07-17T21:59:48.340Z,90.10
2018-07-17T22:02:19.200Z,90.00
2018-07-17T22:04:49.946Z,90.00
2018-07-17T22:07:20.842Z,90.00
2018-07-17T22:09:52.130Z,90.00
2018-07-17T22:12:22.973Z,90.00
2018-07-17T22:14:53.897Z,90.20
2018-07-17T22:17:24.835Z,90.30
2018-07-17T22:19:55.485Z,90.30
2018-07-17T22:22:26.170Z,90.40
2018-07-17T22:24:58.494Z,90.70
2018-07-17T22:27:29.309Z,90.80
2018-07-17T22:30:00.053Z,90.70
2018-07-17T22:32:30.945Z,91.10
2018-07-17T22:35:01.826Z,91.10
2018-07-17T22:37:32.596Z,91.00
2018-07-17T22:40:03.917Z,91.30
2018-07-17T22:42:34.806Z,91.30
2018-07-17T22:45:07.449Z,91.40
2018-07-17T22:47:38.156Z,91.40
2018-07-17T22:50:08.840Z,91.50
2018-07-17T22:52:39.795Z,91.60
2018-07-17T22:55:10.886Z,91.60
2018-07-17T22:57:41.591Z,92.10
2018-07-17T23:00:12.374Z,91.90
2018-07-17T23:02:43.133Z,92.10
2018-07-17T23:05:13.960Z,92.20
2018-07-17T23:07:44.745Z,92.40
2018-07-17T23:10:15.706Z,92.90
2018-07-17T23:12:46.614Z,92.70
2018-07-17T23:15:17.429Z,93.20
2018-07-17T23:17:48.241Z,93.40
2018-07-17T23:20:18.993Z,93.60
2018-07-17T23:22:58.670Z,93.70
2018-07-17T23:25:31.444Z,94.10
2018-07-17T23:28:02.345Z,93.90
2018-07-17T23:30:33.157Z,94.20
2018-07-17T23:33:03.749Z,94.20
2018-07-17T23:35:34.475Z,94.50
2018-07-17T23:38:05.563Z,94.90
2018-07-17T23:40:36.661Z,95.00
2018-07-17T23:43:07.445Z,95.00
2018-07-17T23:45:38.263Z,95.40
2018-07-17T23:48:09.057Z,95.50
2018-07-17T23:50:41.274Z,95.80
2018-07-17T23:53:11.799Z,95.80
2018-07-17T23:55:42.361Z,96.00
2018-07-17T23:58:13.193Z,96.30
